createdAt,value
2018-03-16T00:01:59.201Z,8.55
2018-03-16T00:04:27.534Z,8.52
2018-03-16T00:06:55.850Z,8.48
2018-03-16T00:09:24.185Z,8.48
2018-03-16T00:11:52.507Z,8.41
2018-03-16T00:14:20.895Z,8.44
2018-03-16T00:16:49.262Z,8.46
2018-03-16T00:19:17.618Z,8.39
2018-03-16T00:21:46.028Z,8.29
2018-03-16T00:24:14.407Z,8.28
2018-03-16T00:26:42.721Z,8.27
2018-03-16T00:29:11.033Z,8.30
2018-03-16T00:31:39.364Z,8.25
2018-03-16T00:34:07.690Z,8.18
2018-03-16T00:36:36.013Z,8.09
2018-03-16T00:39:03.668Z,8.14
2018-03-16T00:41:31.880Z,8.17
2018-03-16T00:44:00.251Z,8.11
2018-03-16T00:46:28.599Z,8.13
2018-03-16T00:48:56.939Z,8.08
2018-03-16T00:51:25.264Z,8.02
2018-03-16T00:53:53.597Z,8.02
2018-03-16T00:56:21.940Z,7.98
2018-03-16T00:58:50.283Z,8.02
2018-03-16T01:01:18.603Z,7.99
2018-03-16T01:03:46.926Z,8.05
2018-03-16T01:06:15.250Z,8.01
2018-03-16T01:08:43.573Z,8.01
2018-03-16T01:11:11.921Z,7.84
2018-03-16T01:13:40.268Z,7.78
2018-03-16T01:16:08.605Z,7.73
2018-03-16T01:18:36.934Z,7.79
2018-03-16T01:21:05.837Z,7.82
2018-03-16T01:23:34.174Z,7.85
2018-03-16T01:26:02.551Z,7.84
2018-03-16T01:28:30.884Z,7.82
2018-03-16T01:30:59.206Z,7.82
2018-03-16T01:33:27.573Z,7.84
2018-03-16T01:35:55.674Z,7.85
2018-03-16T01:38:23.999Z,7.88
2018-03-16T01:40:52.320Z,7.85
2018-03-16T01:43:20.642Z,7.83
2018-03-16T01:45:49.005Z,7.83
2018-03-16T01:48:17.344Z,7.92
2018-03-16T01:50:45.702Z,7.92
2018-03-16T01:53:17.297Z,7.88
2018-03-16T01:55:45.634Z,7.84
2018-03-16T01:58:13.968Z,7.80
2018-03-16T02:00:42.288Z,7.73
2018-03-16T02:03:10.629Z,7.69
2018-03-16T02:05:38.949Z,7.71
2018-03-16T02:08:07.308Z,7.76
2018-03-16T02:10:35.630Z,7.73
2018-03-16T02:13:03.948Z,7.76
2018-03-16T02:15:32.109Z,7.79
2018-03-16T02:18:00.445Z,7.73
2018-03-16T02:20:28.783Z,7.65
2018-03-16T02:22:57.141Z,7.58
2018-03-16T02:25:25.514Z,7.62
2018-03-16T02:27:53.827Z,7.62
2018-03-16T02:30:22.219Z,7.58
2018-03-16T02:32:50.556Z,7.54
2018-03-16T02:35:18.935Z,7.59
2018-03-16T02:37:47.262Z,7.67
2018-03-16T02:40:15.658Z,7.67
2018-03-16T02:42:43.990Z,7.67
2018-03-16T02:45:12.346Z,7.66
2018-03-16T02:47:40.699Z,7.64
2018-03-16T02:50:09.038Z,7.72
2018-03-16T02:52:37.380Z,7.79
2018-03-16T02:55:05.698Z,7.83
2018-03-16T02:57:34.067Z,7.83
2018-03-16T03:00:02.414Z,7.78
2018-03-16T03:02:30.793Z,7.78
2018-03-16T03:04:59.153Z,7.79
2018-03-16T03:07:27.539Z,7.76
2018-03-16T03:09:55.871Z,7.46
2018-03-16T03:12:24.203Z,7.45
2018-03-16T03:14:52.552Z,7.55
2018-03-16T03:17:20.888Z,7.62
2018-03-16T03:19:49.217Z,7.63
2018-03-16T03:22:18.770Z,7.66
2018-03-16T03:24:47.187Z,7.63
2018-03-16T03:27:15.720Z,7.52
2018-03-16T03:29:44.109Z,7.56
2018-03-16T03:32:12.424Z,7.61
2018-03-16T03:34:40.786Z,7.66
2018-03-16T03:37:09.212Z,7.68
2018-03-16T03:39:37.537Z,7.73
2018-03-16T03:42:05.894Z,7.67
2018-03-16T03:44:34.277Z,7.72
2018-03-16T03:47:02.699Z,7.78
2018-03-16T03:49:31.127Z,7.75
2018-03-16T03:51:59.507Z,7.78
2018-03-16T03:54:27.818Z,7.78
2018-03-16T03:56:56.150Z,7.84
2018-03-16T03:59:24.474Z,7.92
2018-03-16T04:01:52.803Z,8.01
2018-03-16T04:04:21.142Z,8.05
2018-03-16T04:06:49.474Z,8.09
2018-03-16T04:09:17.819Z,8.10
2018-03-16T04:11:46.134Z,8.13
2018-03-16T04:14:14.647Z,8.04
2018-03-16T04:16:43.045Z,8.09
2018-03-16T04:19:11.391Z,7.87
2018-03-16T04:21:39.730Z,7.80
2018-03-16T04:24:08.285Z,7.80
2018-03-16T04:26:36.634Z,7.83
2018-03-16T04:29:04.954Z,7.78
2018-03-16T04:31:33.284Z,7.87
2018-03-16T04:34:01.599Z,7.96
2018-03-16T04:36:29.984Z,8.06
2018-03-16T04:38:58.334Z,8.07
2018-03-16T04:41:26.719Z,8.10
2018-03-16T04:43:55.081Z,8.16
2018-03-16T04:46:23.443Z,8.20
2018-03-16T04:48:51.781Z,8.23
2018-03-16T04:51:20.205Z,8.17
2018-03-16T04:53:48.551Z,8.23
2018-03-16T04:56:16.922Z,8.26
2018-03-16T04:58:54.966Z,8.31
2018-03-16T05:01:23.284Z,8.39
2018-03-16T05:03:51.648Z,8.45
2018-03-16T05:06:20.034Z,8.48
2018-03-16T05:08:48.396Z,8.53
2018-03-16T05:11:16.746Z,8.56
2018-03-16T05:13:45.098Z,8.45
2018-03-16T05:16:13.418Z,8.50
2018-03-16T05:18:41.787Z,8.48
2018-03-16T05:21:10.130Z,8.44
2018-03-16T05:23:38.451Z,8.53
2018-03-16T05:26:06.821Z,8.56
2018-03-16T05:28:35.221Z,8.58
2018-03-16T05:31:03.560Z,8.55
2018-03-16T05:33:31.888Z,8.52
2018-03-16T05:36:00.249Z,8.48
2018-03-16T05:38:28.624Z,8.52
2018-03-16T05:41:09.654Z,8.64
2018-03-16T05:43:38.051Z,8.74
2018-03-16T05:46:06.397Z,8.83
2018-03-16T05:48:34.758Z,8.84
2018-03-16T05:51:03.166Z,8.90
2018-03-16T05:53:31.487Z,9.02
2018-03-16T05:55:59.899Z,9.06
2018-03-16T05:58:28.272Z,9.06
2018-03-16T06:00:56.745Z,9.09
2018-03-16T06:03:43.839Z,9.15
2018-03-16T06:06:12.903Z,9.15
2018-03-16T06:08:41.248Z,9.23
2018-03-16T06:11:09.658Z,9.26
2018-03-16T06:14:00.148Z,9.32
2018-03-16T06:16:28.475Z,9.50
2018-03-16T06:18:56.863Z,9.61
2018-03-16T06:21:25.298Z,9.64
2018-03-16T06:23:53.727Z,9.77
2018-03-16T06:26:22.124Z,9.82
2018-03-16T06:28:50.471Z,9.95
2018-03-16T06:31:18.846Z,10.00
2018-03-16T06:33:47.202Z,10.01
2018-03-16T06:36:15.526Z,9.99
2018-03-16T06:38:43.881Z,10.05
2018-03-16T06:41:13.025Z,10.14
2018-03-16T06:43:41.376Z,10.20
2018-03-16T06:46:09.782Z,10.29
2018-03-16T06:48:38.100Z,10.36
2018-03-16T06:51:06.421Z,10.42
2018-03-16T06:53:34.821Z,10.35
2018-03-16T06:56:03.207Z,10.35
2018-03-16T06:58:31.571Z,10.41
2018-03-16T07:00:59.987Z,10.36
2018-03-16T07:03:28.498Z,10.28
2018-03-16T07:05:56.837Z,10.24
2018-03-16T07:08:25.243Z,10.34
2018-03-16T07:10:53.642Z,10.37
2018-03-16T07:13:21.975Z,10.31
2018-03-16T07:15:50.294Z,10.28
2018-03-16T07:18:18.615Z,10.21
2018-03-16T07:20:46.972Z,10.20
2018-03-16T07:23:15.380Z,10.11
2018-03-16T07:25:43.727Z,10.16
2018-03-16T07:28:12.063Z,10.16
2018-03-16T07:30:40.439Z,10.13
2018-03-16T07:33:08.865Z,10.23
2018-03-16T07:35:37.301Z,10.15
2018-03-16T07:38:05.625Z,10.23
2018-03-16T07:40:34.008Z,10.20
2018-03-16T07:43:02.474Z,10.25
2018-03-16T07:45:36.425Z,10.09
2018-03-16T07:48:05.598Z,10.00
2018-03-16T07:50:33.959Z,9.93
2018-03-16T07:53:02.309Z,9.98
2018-03-16T07:55:30.674Z,10.14
2018-03-16T07:57:59.013Z,10.31
2018-03-16T08:00:27.425Z,10.32
2018-03-16T08:02:55.775Z,10.43
2018-03-16T08:05:24.187Z,10.43
2018-03-16T08:07:52.586Z,10.53
2018-03-16T08:10:20.934Z,10.45
2018-03-16T08:12:49.268Z,10.37
2018-03-16T08:15:17.607Z,10.27
2018-03-16T08:17:46.201Z,10.20
2018-03-16T08:20:14.591Z,10.12
2018-03-16T08:22:43.040Z,9.98
2018-03-16T08:25:11.371Z,9.88
2018-03-16T08:27:39.730Z,9.93
2018-03-16T08:30:08.098Z,9.98
2018-03-16T08:32:36.468Z,9.89
2018-03-16T08:35:04.835Z,9.66
2018-03-16T08:37:33.169Z,9.76
2018-03-16T08:40:01.514Z,9.85
2018-03-16T08:42:29.885Z,9.92
2018-03-16T08:44:58.259Z,9.98
2018-03-16T08:47:26.777Z,9.99
2018-03-16T08:49:55.116Z,9.95
2018-03-16T08:52:23.471Z,9.92
2018-03-16T08:54:51.834Z,9.96
2018-03-16T08:57:20.166Z,9.96
2018-03-16T08:59:48.525Z,10.02
2018-03-16T09:02:16.930Z,10.04
2018-03-16T09:04:45.293Z,10.13
2018-03-16T09:07:13.645Z,10.17
2018-03-16T09:09:41.995Z,10.11
2018-03-16T09:12:10.325Z,10.01
2018-03-16T09:14:39.520Z,10.07
2018-03-16T09:17:07.878Z,10.01
2018-03-16T09:19:36.274Z,10.09
2018-03-16T09:22:04.723Z,10.19
2018-03-16T09:24:33.176Z,10.32
2018-03-16T09:27:01.540Z,10.45
2018-03-16T09:29:29.897Z,10.59
2018-03-16T09:31:58.245Z,10.63
2018-03-16T09:34:26.682Z,10.74
2018-03-16T09:36:55.031Z,10.89
2018-03-16T09:39:23.413Z,10.99
2018-03-16T09:41:51.791Z,10.97
2018-03-16T09:44:20.167Z,11.02
2018-03-16T09:46:48.546Z,10.87
2018-03-16T09:49:16.928Z,10.84
2018-03-16T09:51:45.254Z,10.96
2018-03-16T17:03:38.196Z,12.05
2018-03-16T17:09:21.213Z,11.99
2018-03-16T17:14:42.779Z,11.65
2018-03-16T17:17:11.149Z,11.45
2018-03-16T17:19:39.492Z,11.36
2018-03-16T17:22:07.922Z,11.41
2018-03-16T17:24:36.313Z,11.40
2018-03-16T17:27:04.674Z,11.45
2018-03-16T17:29:33.037Z,11.51
2018-03-16T17:32:01.375Z,11.57
2018-03-16T17:34:29.715Z,11.67
2018-03-16T17:36:57.919Z,11.64
2018-03-16T17:39:26.283Z,11.65
2018-03-16T17:41:55.085Z,11.58
2018-03-16T17:44:23.424Z,11.59
2018-03-16T17:46:51.778Z,11.58
2018-03-16T17:49:20.134Z,11.56
2018-03-16T17:51:48.501Z,11.57
2018-03-16T17:54:16.842Z,11.57
2018-03-16T17:56:45.170Z,11.44
2018-03-16T17:59:13.505Z,11.49
2018-03-16T18:01:41.863Z,11.41
2018-03-16T18:04:10.196Z,11.35
2018-03-16T18:06:38.563Z,11.37
2018-03-16T18:09:06.898Z,11.37
2018-03-16T18:11:35.252Z,11.47
2018-03-16T18:14:03.399Z,11.38
2018-03-16T18:16:31.735Z,11.37
2018-03-16T18:19:00.085Z,11.36
2018-03-16T18:21:28.457Z,11.31
2018-03-16T18:23:56.830Z,11.30
2018-03-16T18:26:25.149Z,11.25
2018-03-16T18:28:53.462Z,11.12
2018-03-16T18:31:21.792Z,11.12
2018-03-16T18:33:50.229Z,11.07
2018-03-16T18:36:18.591Z,11.06
2018-03-16T18:38:46.972Z,10.96
2018-03-16T18:41:15.347Z,11.01
2018-03-16T18:43:43.679Z,11.04
2018-03-16T18:46:12.018Z,11.05
2018-03-16T18:48:40.358Z,11.11
2018-03-16T18:51:08.767Z,11.10
2018-03-16T18:53:37.206Z,11.11
2018-03-16T18:56:05.551Z,11.12
2018-03-16T18:58:33.905Z,11.23
2018-03-16T19:01:02.241Z,11.31
2018-03-16T19:03:30.584Z,11.30
2018-03-16T19:05:58.980Z,11.29
2018-03-16T19:08:27.362Z,11.36
2018-03-16T19:10:56.643Z,11.44
2018-03-16T19:13:24.976Z,11.31
2018-03-16T19:15:53.378Z,11.32
2018-03-16T19:18:21.755Z,11.36
2018-03-16T19:20:50.109Z,11.44
2018-03-16T19:23:18.497Z,11.58
2018-03-16T19:25:46.905Z,11.48
2018-03-16T19:28:15.235Z,11.46
2018-03-16T19:30:43.612Z,11.51
2018-03-16T19:33:11.950Z,11.44
2018-03-16T19:35:40.308Z,11.54
2018-03-16T19:38:08.666Z,11.53
2018-03-16T19:40:37.058Z,11.54
2018-03-16T19:43:05.453Z,11.56
2018-03-16T19:45:33.800Z,11.48
2018-03-16T19:48:02.151Z,11.46
2018-03-16T19:50:30.586Z,11.47
2018-03-16T19:52:58.984Z,11.49
2018-03-16T19:55:27.176Z,11.45
2018-03-16T19:57:55.361Z,11.44
2018-03-16T20:00:24.090Z,11.54
2018-03-16T20:02:52.458Z,11.51
2018-03-16T20:05:20.812Z,11.50
2018-03-16T20:07:49.164Z,11.49
2018-03-16T20:10:17.501Z,11.56
2018-03-16T20:12:45.897Z,11.65
2018-03-16T20:15:14.253Z,11.60
2018-03-16T20:17:50.080Z,11.61
2018-03-16T20:20:18.968Z,11.57
2018-03-16T20:22:47.402Z,11.44
2018-03-16T20:25:15.740Z,11.50
2018-03-16T20:27:43.896Z,11.49
2018-03-16T20:30:12.239Z,11.45
2018-03-16T20:32:40.590Z,11.45
2018-03-16T20:35:08.956Z,11.52
2018-03-16T20:37:37.317Z,11.45
2018-03-16T20:40:05.701Z,11.43
2018-03-16T20:42:34.065Z,11.31
2018-03-16T20:45:04.041Z,11.19
2018-03-16T20:47:32.387Z,11.18
2018-03-16T20:50:00.729Z,11.10
2018-03-16T20:52:29.099Z,10.97
2018-03-16T20:54:57.458Z,10.89
2018-03-16T20:57:25.831Z,10.93
2018-03-16T20:59:54.180Z,10.86
2018-03-16T21:02:22.526Z,10.79
2018-03-16T21:04:50.845Z,10.79
2018-03-16T21:07:19.184Z,10.79
2018-03-16T21:09:47.531Z,10.80
2018-03-16T21:12:15.896Z,10.74
2018-03-16T21:14:44.431Z,10.65
2018-03-16T21:17:12.770Z,10.63
2018-03-16T21:19:41.105Z,10.66
2018-03-16T21:22:09.462Z,10.77
2018-03-16T21:24:37.808Z,10.74
2018-03-16T21:27:06.169Z,10.83
2018-03-16T21:29:34.536Z,10.84
2018-03-16T21:32:02.838Z,10.66
2018-03-16T21:34:31.198Z,10.77
2018-03-16T21:36:59.537Z,10.86
2018-03-16T21:39:27.873Z,10.82
2018-03-16T21:41:56.201Z,10.81
2018-03-16T21:44:24.547Z,10.84
2018-03-16T21:46:52.881Z,10.91
2018-03-16T21:49:21.202Z,10.91
2018-03-16T21:51:49.588Z,10.82
2018-03-16T21:54:17.918Z,10.82
2018-03-16T21:56:46.443Z,10.88
2018-03-16T21:59:14.829Z,10.91
2018-03-16T22:01:43.169Z,10.73
2018-03-16T22:04:11.513Z,10.51
2018-03-16T22:06:39.840Z,10.47
2018-03-16T22:09:08.183Z,10.57
2018-03-16T22:11:36.507Z,10.69
2018-03-16T22:14:04.849Z,10.74
2018-03-16T22:16:33.191Z,10.80
2018-03-16T22:19:01.529Z,10.85
2018-03-16T22:21:29.855Z,10.93
2018-03-16T22:23:58.217Z,10.93
2018-03-16T22:26:26.541Z,11.05
2018-03-16T22:28:54.875Z,11.11
2018-03-16T22:31:23.221Z,11.20
2018-03-16T22:33:51.577Z,11.20
2018-03-16T22:36:19.904Z,11.17
2018-03-16T22:38:48.236Z,11.16
2018-03-16T22:41:16.562Z,11.18
2018-03-16T22:43:44.903Z,11.14
2018-03-16T22:46:13.262Z,11.17
2018-03-16T22:48:41.609Z,11.19
2018-03-16T22:51:09.935Z,11.25
2018-03-16T22:53:38.269Z,11.18
2018-03-16T22:56:06.591Z,11.19
2018-03-16T22:58:34.932Z,11.20
2018-03-16T23:01:03.296Z,11.13
2018-03-16T23:03:31.610Z,11.08
2018-03-16T23:05:59.945Z,11.06
2018-03-16T23:08:28.255Z,11.02
2018-03-16T23:10:56.687Z,11.04
2018-03-16T23:13:25.014Z,11.05
2018-03-16T23:15:53.333Z,10.98
2018-03-16T23:18:21.670Z,11.04
2018-03-16T23:20:50.009Z,11.07
2018-03-16T23:23:18.419Z,11.06
2018-03-16T23:25:46.848Z,11.10
2018-03-16T23:28:15.185Z,11.07
2018-03-16T23:30:43.525Z,11.14
2018-03-16T23:33:11.833Z,11.20
2018-03-16T23:35:40.190Z,11.15
2018-03-16T23:38:08.507Z,11.22
2018-03-16T23:40:36.833Z,11.26
2018-03-16T23:43:05.145Z,11.33
2018-03-16T23:45:33.482Z,11.34
2018-03-16T23:48:01.840Z,11.35
2018-03-16T23:50:30.168Z,11.40
2018-03-16T23:52:58.512Z,11.46
2018-03-16T23:55:26.873Z,11.51
2018-03-16T23:57:55.194Z,11.56
